createdAt,value
2023-04-26T00:00:50.841Z,5.29
2023-04-26T00:01:51.191Z,5.27
2023-04-26T00:02:51.664Z,5.27
2023-04-26T00:03:50.971Z,5.24
2023-04-26T00:04:51.466Z,5.19
2023-04-26T00:05:51.623Z,5.17
2023-04-26T00:06:51.854Z,5.15
2023-04-26T00:07:51.232Z,5.15
2023-04-26T00:08:51.910Z,5.15
2023-04-26T00:09:50.943Z,5.12
2023-04-26T00:10:52.213Z,5.14
2023-04-26T00:11:51.717Z,5.12
2023-04-26T00:12:51.871Z,5.15
2023-04-26T00:13:52.246Z,5.19
2023-04-26T00:14:51.527Z,5.20
2023-04-26T00:15:51.942Z,5.23
2023-04-26T00:16:52.265Z,5.24
2023-04-26T00:17:50.981Z,5.24
2023-04-26T00:18:51.064Z,5.23
2023-04-26T00:19:52.223Z,5.22
2023-04-26T00:20:51.518Z,5.24
2023-04-26T00:21:50.878Z,5.24
2023-04-26T00:22:51.251Z,5.24
2023-04-26T00:23:50.533Z,5.23
2023-04-26T00:24:50.839Z,5.23
2023-04-26T00:25:51.208Z,5.19
2023-04-26T00:26:50.488Z,5.11
2023-04-26T00:27:50.851Z,5.08
2023-04-26T00:28:51.386Z,5.04
2023-04-26T00:29:51.452Z,4.97
2023-04-26T00:30:51.827Z,4.93
2023-04-26T00:31:52.193Z,4.88
2023-04-26T00:32:51.559Z,4.87
2023-04-26T00:33:50.861Z,4.84
2023-04-26T00:34:51.184Z,4.80
2023-04-26T00:35:50.464Z,4.75
2023-04-26T00:36:50.861Z,4.72
2023-04-26T00:37:52.108Z,4.69
2023-04-26T00:38:50.824Z,4.67
2023-04-26T00:39:50.821Z,4.64
2023-04-26T00:40:51.075Z,4.61
2023-04-26T00:41:50.357Z,4.61
2023-04-26T00:42:51.644Z,4.57
2023-04-26T00:43:51.957Z,4.56
2023-04-26T00:44:51.250Z,4.51
2023-04-26T00:45:51.708Z,4.53
2023-04-26T00:46:51.912Z,4.53
2023-04-26T00:47:51.265Z,4.57
2023-04-26T00:48:50.762Z,4.61
2023-04-26T00:49:51.892Z,4.57
2023-04-26T00:50:50.252Z,4.61
2023-04-26T00:51:51.547Z,4.64
2023-04-26T00:52:51.859Z,4.65
2023-04-26T00:53:50.157Z,4.71
2023-04-26T00:54:51.456Z,4.74
2023-04-26T00:55:50.854Z,4.74
2023-04-26T00:56:50.117Z,4.69
2023-04-26T00:57:51.790Z,4.64
2023-04-26T00:58:51.971Z,4.57
2023-04-26T00:59:50.051Z,4.54
2023-04-26T01:00:50.456Z,4.50
2023-04-26T01:01:50.720Z,4.44
2023-04-26T01:02:51.074Z,4.39
2023-04-26T01:03:51.594Z,4.38
2023-04-26T01:04:51.622Z,4.35
2023-04-26T01:05:50.925Z,4.32
2023-04-26T01:06:51.261Z,4.28
2023-04-26T01:07:50.636Z,4.26
2023-04-26T01:08:51.127Z,4.25
2023-04-26T01:09:50.284Z,4.21
2023-04-26T01:10:49.945Z,4.21
2023-04-26T01:11:50.314Z,4.18
2023-04-26T01:12:50.630Z,4.17
2023-04-26T01:13:49.932Z,4.17
2023-04-26T01:14:50.440Z,4.16
2023-04-26T01:15:50.618Z,4.16
2023-04-26T01:16:50.925Z,4.16
2023-04-26T01:17:51.327Z,4.13
2023-04-26T01:18:50.904Z,4.14
2023-04-26T01:19:49.913Z,4.16
2023-04-26T01:20:50.353Z,4.17
2023-04-26T01:21:51.593Z,4.18
2023-04-26T01:22:50.847Z,4.25
2023-04-26T01:23:51.207Z,4.25
2023-04-26T01:24:51.589Z,4.25
2023-04-26T01:25:49.891Z,4.26
2023-04-26T01:26:50.274Z,4.26
2023-04-26T01:27:51.547Z,4.26
2023-04-26T01:28:49.983Z,4.25
2023-04-26T01:29:51.171Z,4.28
2023-04-26T01:30:51.558Z,4.28
2023-04-26T01:31:50.820Z,4.25
2023-04-26T01:32:50.280Z,4.24
2023-04-26T01:33:50.549Z,4.18
2023-04-26T01:34:50.823Z,4.16
2023-04-26T01:35:51.167Z,4.16
2023-04-26T01:36:49.498Z,4.13
2023-04-26T01:37:49.869Z,4.10
2023-04-26T01:38:51.495Z,4.10
2023-04-26T01:39:49.519Z,4.10
2023-04-26T01:40:49.905Z,4.08
2023-04-26T01:41:50.246Z,4.07
2023-04-26T01:42:49.544Z,4.07
2023-04-26T01:43:49.908Z,4.06
2023-04-26T01:44:51.252Z,4.04
2023-04-26T01:45:49.595Z,4.04
2023-04-26T01:46:49.909Z,4.02
2023-04-26T01:47:50.283Z,4.00
2023-04-26T01:48:49.580Z,3.99
2023-04-26T01:49:49.894Z,3.99
2023-04-26T01:50:50.253Z,4.02
2023-04-26T01:51:49.561Z,4.00
2023-04-26T01:52:49.883Z,3.98
2023-04-26T01:53:50.217Z,3.96
2023-04-26T01:54:49.528Z,3.96
2023-04-26T01:55:49.903Z,3.93
2023-04-26T01:56:50.217Z,3.92
2023-04-26T01:57:49.516Z,3.90
2023-04-26T01:58:50.068Z,3.88
2023-04-26T01:59:51.182Z,3.84
2023-04-26T02:00:49.561Z,3.86
2023-04-26T02:01:49.999Z,3.84
2023-04-26T02:02:49.307Z,3.86
2023-04-26T02:03:50.540Z,3.82
2023-04-26T02:04:49.932Z,3.80
2023-04-26T02:05:49.177Z,3.78
2023-04-26T02:06:50.479Z,3.78
2023-04-26T02:07:49.922Z,3.82
2023-04-26T02:08:49.364Z,3.81
2023-04-26T02:09:49.505Z,3.78
2023-04-26T02:10:49.866Z,3.75
2023-04-26T02:11:49.186Z,3.72
2023-04-26T02:12:49.512Z,3.67
2023-04-26T02:13:49.890Z,3.63
2023-04-26T02:14:49.163Z,3.60
2023-04-26T02:15:49.523Z,3.63
2023-04-26T02:16:49.840Z,3.60
2023-04-26T02:17:49.238Z,3.60
2023-04-26T02:18:49.722Z,3.60
2023-04-26T02:19:49.972Z,3.63
2023-04-26T02:20:50.126Z,3.60
2023-04-26T02:21:49.494Z,3.60
2023-04-26T02:22:49.864Z,3.63
2023-04-26T02:23:49.211Z,3.70
2023-04-26T02:24:49.582Z,3.71
2023-04-26T02:25:49.088Z,3.74
2023-04-26T02:26:49.223Z,3.78
2023-04-26T02:27:49.570Z,3.82
2023-04-26T02:28:48.867Z,3.88
2023-04-26T02:29:49.240Z,3.92
2023-04-26T02:30:49.624Z,3.96
2023-04-26T02:31:48.959Z,3.95
2023-04-26T02:32:49.276Z,3.96
2023-04-26T02:33:49.614Z,3.95
2023-04-26T02:34:48.901Z,3.90
2023-04-26T02:35:49.295Z,3.92
2023-04-26T02:36:49.744Z,3.92
2023-04-26T02:37:48.979Z,3.90
2023-04-26T02:38:49.458Z,3.84
2023-04-26T02:39:48.701Z,3.81
2023-04-26T02:40:49.097Z,3.80
2023-04-26T02:41:49.444Z,3.75
2023-04-26T02:42:48.910Z,3.74
2023-04-26T02:43:49.145Z,3.74
2023-04-26T02:44:49.507Z,3.72
2023-04-26T02:45:48.830Z,3.78
2023-04-26T02:46:49.297Z,3.80
2023-04-26T02:47:49.685Z,3.82
2023-04-26T02:48:49.043Z,3.84
2023-04-26T02:49:49.270Z,3.88
2023-04-26T02:50:48.631Z,3.89
2023-04-26T02:51:48.999Z,3.89
2023-04-26T02:52:49.393Z,3.88
2023-04-26T02:53:48.764Z,3.81
2023-04-26T02:54:49.086Z,3.80
2023-04-26T02:55:49.469Z,3.77
2023-04-26T02:56:48.831Z,3.72
2023-04-26T02:57:49.224Z,3.68
2023-04-26T02:58:48.571Z,3.62
2023-04-26T02:59:48.939Z,3.57
2023-04-26T03:00:49.360Z,3.54
2023-04-26T03:01:48.680Z,3.44
2023-04-26T03:02:49.226Z,3.41
2023-04-26T03:03:48.515Z,3.34
2023-04-26T03:04:48.762Z,3.30
2023-04-26T03:05:49.472Z,3.25
2023-04-26T03:06:49.434Z,3.23
2023-04-26T03:07:49.796Z,3.19
2023-04-26T03:08:50.373Z,3.17
2023-04-26T03:09:48.537Z,3.20
2023-04-26T03:10:48.945Z,3.22
2023-04-26T03:11:50.230Z,3.25
2023-04-26T03:12:48.571Z,3.23
2023-04-26T03:13:49.894Z,3.25
2023-04-26T03:14:48.229Z,3.26
2023-04-26T03:15:48.588Z,3.25
2023-04-26T03:16:49.030Z,3.25
2023-04-26T03:17:49.270Z,3.23
2023-04-26T03:18:49.832Z,3.25
2023-04-26T03:19:49.962Z,3.26
2023-04-26T03:20:48.306Z,3.30
2023-04-26T03:21:49.628Z,3.26
2023-04-26T03:22:48.333Z,3.28
2023-04-26T03:23:48.605Z,3.31
2023-04-26T03:24:49.950Z,3.34
2023-04-26T03:25:49.274Z,3.39
2023-04-26T03:26:49.674Z,3.37
2023-04-26T03:27:48.032Z,3.41
2023-04-26T03:28:48.412Z,3.42
2023-04-26T03:29:49.710Z,3.45
2023-04-26T03:30:49.062Z,3.50
2023-04-26T03:31:48.518Z,3.52
2023-04-26T03:32:48.874Z,3.52
2023-04-26T03:33:48.192Z,3.52
2023-04-26T03:34:48.563Z,3.54
2023-04-26T03:35:47.891Z,3.53
2023-04-26T03:36:48.267Z,3.54
2023-04-26T03:37:48.633Z,3.54
2023-04-26T03:38:47.979Z,3.54
2023-04-26T03:39:49.269Z,3.56
2023-04-26T03:40:49.643Z,3.56
2023-04-26T03:41:48.957Z,3.53
2023-04-26T03:42:48.373Z,3.52
2023-04-26T03:43:48.817Z,3.50
2023-04-26T03:44:49.000Z,3.46
2023-04-26T03:45:49.433Z,3.44
2023-04-26T03:46:49.717Z,3.39
2023-04-26T03:47:49.074Z,3.35
2023-04-26T03:48:49.722Z,3.31
2023-04-26T03:49:47.935Z,3.30
2023-04-26T03:50:49.165Z,3.25
2023-04-26T03:51:48.585Z,3.22
2023-04-26T03:52:48.881Z,3.22
2023-04-26T03:53:48.478Z,3.22
2023-04-26T03:54:48.811Z,3.17
2023-04-26T03:55:48.950Z,3.19
2023-04-26T03:56:49.298Z,3.19
2023-04-26T03:57:47.685Z,3.19
2023-04-26T03:58:48.040Z,3.19
2023-04-26T03:59:48.391Z,3.20
2023-04-26T04:00:47.847Z,3.22
2023-04-26T04:01:48.065Z,3.26
2023-04-26T04:02:49.468Z,3.26
2023-04-26T04:03:48.864Z,3.28
2023-04-26T04:04:49.274Z,3.28
2023-04-26T04:05:48.589Z,3.28
2023-04-26T04:06:48.764Z,3.26
2023-04-26T04:07:48.178Z,3.28
2023-04-26T04:08:49.757Z,3.28
2023-04-26T04:09:48.835Z,3.30
2023-04-26T04:10:49.201Z,3.31
2023-04-26T04:11:47.837Z,3.30
2023-04-26T04:12:48.808Z,3.30
2023-04-26T04:13:48.222Z,3.30
2023-04-26T04:14:47.572Z,3.28
2023-04-26T04:15:47.929Z,3.26
2023-04-26T04:16:48.287Z,3.25
2023-04-26T04:17:47.605Z,3.22
2023-04-26T04:18:48.894Z,3.22
2023-04-26T04:19:48.423Z,3.20
2023-04-26T04:20:48.599Z,3.22
2023-04-26T04:21:47.984Z,3.23
2023-04-26T04:22:47.352Z,3.22
2023-04-26T04:23:48.662Z,3.25
2023-04-26T04:24:49.101Z,3.26
2023-04-26T04:25:49.455Z,3.31
2023-04-26T04:26:48.719Z,3.33
2023-04-26T04:27:48.176Z,3.35
2023-04-26T04:28:47.542Z,3.37
2023-04-26T04:29:48.758Z,3.37
2023-04-26T04:30:49.143Z,3.35
2023-04-26T04:31:47.516Z,3.41
2023-04-26T04:32:47.877Z,3.42
2023-04-26T04:33:47.222Z,3.39
2023-04-26T04:34:49.487Z,3.41
2023-04-26T04:35:47.949Z,3.42
2023-04-26T04:36:48.366Z,3.45
2023-04-26T04:37:48.652Z,3.49
2023-04-26T04:38:48.126Z,3.50
2023-04-26T04:39:47.403Z,3.52
2023-04-26T04:40:47.821Z,3.50
2023-04-26T04:41:48.130Z,3.50
2023-04-26T04:42:47.510Z,3.49
2023-04-26T04:43:47.881Z,3.46
2023-04-26T04:44:47.249Z,3.46
2023-04-26T04:45:48.528Z,3.45
2023-04-26T04:46:48.959Z,3.41
2023-04-26T04:47:48.361Z,3.41
2023-04-26T04:48:48.673Z,3.39
2023-04-26T04:49:48.008Z,3.41
2023-04-26T04:50:47.484Z,3.37
2023-04-26T04:51:47.817Z,3.35
2023-04-26T04:52:47.169Z,3.35
2023-04-26T04:53:47.542Z,3.31
2023-04-26T04:54:47.847Z,3.31
2023-04-26T04:55:47.280Z,3.31
2023-04-26T04:56:47.701Z,3.26
2023-04-26T04:57:48.007Z,3.23
2023-04-26T04:58:47.381Z,3.25
2023-04-26T04:59:48.733Z,3.25
2023-04-26T05:00:47.115Z,3.26
2023-04-26T05:01:48.508Z,3.30
2023-04-26T05:02:47.113Z,3.33
2023-04-26T05:03:48.301Z,3.33
2023-04-26T05:04:47.724Z,3.35
2023-04-26T05:05:46.909Z,3.31
2023-04-26T05:06:47.304Z,3.33
2023-04-26T05:07:47.701Z,3.35
2023-04-26T05:08:47.008Z,3.39
2023-04-26T05:09:47.925Z,3.39
2023-04-26T05:10:48.700Z,3.44
2023-04-26T05:11:48.060Z,3.45
2023-04-26T05:12:47.546Z,3.44
2023-04-26T05:13:46.952Z,3.44
2023-04-26T05:14:47.116Z,3.44
2023-04-26T05:15:47.522Z,3.45
2023-04-26T05:16:47.972Z,3.49
2023-04-26T05:17:47.239Z,3.54
2023-04-26T05:18:47.809Z,3.54
2023-04-26T05:19:47.881Z,3.59
2023-04-26T05:20:48.265Z,3.60
2023-04-26T05:21:46.681Z,3.59
2023-04-26T05:22:47.029Z,3.57
2023-04-26T05:23:47.417Z,3.60
2023-04-26T05:24:46.949Z,3.64
2023-04-26T05:25:48.091Z,3.70
2023-04-26T05:26:47.507Z,3.75
2023-04-26T05:27:46.801Z,3.78
2023-04-26T05:28:48.147Z,3.77
2023-04-26T05:29:46.471Z,3.81
2023-04-26T05:30:48.036Z,3.82
2023-04-26T05:31:47.273Z,3.82
2023-04-26T05:32:46.643Z,3.84
2023-04-26T05:33:48.028Z,3.89
2023-04-26T05:34:47.349Z,3.90
2023-04-26T05:35:47.566Z,3.98
2023-04-26T05:36:47.568Z,3.96
2023-04-26T05:37:48.347Z,3.95
2023-04-26T05:38:47.709Z,3.98
2023-04-26T05:39:49.269Z,3.98
2023-04-26T05:40:47.317Z,4.02
2023-04-26T05:41:46.902Z,4.07
2023-04-26T05:42:47.125Z,4.11
2023-04-26T05:43:46.401Z,4.14
2023-04-26T05:44:48.739Z,4.16
2023-04-26T05:45:48.651Z,4.18
2023-04-26T05:46:47.376Z,4.21
2023-04-26T05:47:46.822Z,4.20
2023-04-26T05:48:47.115Z,4.24
2023-04-26T05:49:46.402Z,4.24
2023-04-26T05:50:46.788Z,4.20
2023-04-26T05:51:48.053Z,4.20
2023-04-26T05:52:46.478Z,4.20
2023-04-26T05:53:46.797Z,4.20
2023-04-26T05:54:47.282Z,4.20
2023-04-26T05:55:46.454Z,4.20
2023-04-26T05:56:46.787Z,4.18
2023-04-26T05:57:48.137Z,4.20
2023-04-26T05:58:47.406Z,4.21
2023-04-26T05:59:47.803Z,4.17
2023-04-26T06:00:46.140Z,4.18
2023-04-26T06:01:47.468Z,4.21
2023-04-26T06:02:48.010Z,4.21
2023-04-26T06:03:46.438Z,4.26
2023-04-26T06:04:46.879Z,4.28
2023-04-26T06:05:47.459Z,4.29
2023-04-26T06:06:46.256Z,4.32
2023-04-26T06:07:46.631Z,4.31
2023-04-26T06:08:47.021Z,4.25
2023-04-26T06:09:47.246Z,4.21
2023-04-26T06:10:46.653Z,4.25
2023-04-26T06:11:46.032Z,4.21
2023-04-26T06:12:46.348Z,4.24
2023-04-26T06:13:47.669Z,4.29
2023-04-26T06:14:46.997Z,4.28
2023-04-26T06:15:46.378Z,4.31
2023-04-26T06:16:48.293Z,4.34
2023-04-26T06:17:47.056Z,4.29
2023-04-26T06:18:47.332Z,4.31
2023-04-26T06:19:47.707Z,4.32
2023-04-26T06:20:47.056Z,4.34
2023-04-26T06:21:46.393Z,4.32
2023-04-26T06:22:47.731Z,4.34
2023-04-26T06:23:46.025Z,4.39
2023-04-26T06:24:47.341Z,4.43
2023-04-26T06:25:46.709Z,4.47
2023-04-26T06:26:46.033Z,4.47
2023-04-26T06:27:47.338Z,4.49
2023-04-26T06:28:46.716Z,4.50
2023-04-26T06:29:46.035Z,4.49
2023-04-26T06:30:46.447Z,4.51
2023-04-26T06:31:45.686Z,4.50
2023-04-26T06:32:47.119Z,4.49
2023-04-26T06:33:47.400Z,4.49
2023-04-26T06:34:46.650Z,4.50
2023-04-26T06:35:47.060Z,4.50
2023-04-26T06:36:47.345Z,4.50
2023-04-26T06:37:46.638Z,4.50
2023-04-26T06:38:47.021Z,4.51
2023-04-26T06:39:47.390Z,4.54
2023-04-26T06:40:46.655Z,4.54
2023-04-26T06:41:46.999Z,4.59
2023-04-26T06:42:47.327Z,4.62
2023-04-26T06:43:46.631Z,4.69
2023-04-26T06:44:47.000Z,4.72
2023-04-26T06:45:46.446Z,4.72
2023-04-26T06:46:46.699Z,4.74
2023-04-26T06:47:46.037Z,4.74
2023-04-26T06:48:46.335Z,4.74
2023-04-26T06:49:46.632Z,4.74
2023-04-26T06:50:46.077Z,4.77
2023-04-26T06:51:46.391Z,4.79
2023-04-26T06:52:46.599Z,4.83
2023-04-26T06:53:46.946Z,4.87
2023-04-26T06:54:56.134Z,4.90
2023-04-26T06:55:46.658Z,4.94
2023-04-26T06:56:46.923Z,4.93
2023-04-26T06:57:46.433Z,4.97
2023-04-26T06:58:45.612Z,4.94
2023-04-26T06:59:45.956Z,4.94
2023-04-26T07:00:45.253Z,4.97
2023-04-26T07:01:46.654Z,5.01
2023-04-26T07:02:47.007Z,5.05
2023-04-26T07:03:45.332Z,5.12
2023-04-26T07:04:46.755Z,5.19
2023-04-26T07:05:47.041Z,5.23
2023-04-26T07:06:46.184Z,5.27
2023-04-26T07:07:45.789Z,5.33
2023-04-26T07:08:46.892Z,5.33
2023-04-26T07:09:45.164Z,5.35
2023-04-26T07:10:45.544Z,5.37
2023-04-26T07:11:47.042Z,5.38
2023-04-26T07:12:46.146Z,5.40
2023-04-26T07:13:45.429Z,5.41
2023-04-26T07:14:45.824Z,5.42
2023-04-26T07:15:47.190Z,5.42
2023-04-26T07:16:45.452Z,5.48
2023-04-26T07:17:46.751Z,5.51
2023-04-26T07:18:46.983Z,5.52
2023-04-26T07:19:45.334Z,5.59
2023-04-26T07:20:46.717Z,5.65
2023-04-26T07:21:46.987Z,5.67
2023-04-26T07:22:46.247Z,5.70
2023-04-26T07:23:46.579Z,5.75
2023-04-26T07:24:46.880Z,5.77
2023-04-26T07:25:46.218Z,5.75
2023-04-26T07:26:45.568Z,5.73
2023-04-26T07:27:46.800Z,5.70
2023-04-26T07:28:45.178Z,5.73
2023-04-26T07:29:45.565Z,5.77
2023-04-26T07:30:46.690Z,5.84
2023-04-26T07:31:45.959Z,5.90
2023-04-26T07:32:46.562Z,5.93
2023-04-26T07:33:45.676Z,5.96
2023-04-26T07:34:44.857Z,6.02
2023-04-26T07:35:45.182Z,6.03
2023-04-26T07:36:46.416Z,6.05
2023-04-26T07:37:45.837Z,6.05
2023-04-26T07:38:46.041Z,6.05
2023-04-26T07:39:45.369Z,6.06
2023-04-26T07:40:45.698Z,6.10
2023-04-26T07:41:44.943Z,6.16
2023-04-26T07:42:45.213Z,6.17
2023-04-26T07:43:45.759Z,6.27
2023-04-26T07:44:45.710Z,6.33
2023-04-26T07:45:45.195Z,6.40
2023-04-26T07:46:45.352Z,6.45
2023-04-26T07:47:46.605Z,6.50
2023-04-26T07:48:45.854Z,6.57
2023-04-26T07:49:47.759Z,6.63
2023-04-26T07:50:46.435Z,6.60
2023-04-26T07:51:45.676Z,6.57
2023-04-26T07:52:45.010Z,6.55
2023-04-26T07:53:45.293Z,6.57
2023-04-26T07:54:45.511Z,6.61
2023-04-26T07:55:45.952Z,6.64
2023-04-26T07:56:46.131Z,6.63
2023-04-26T07:57:46.402Z,6.64
2023-04-26T07:58:45.755Z,6.68
2023-04-26T07:59:45.951Z,6.68
2023-04-26T08:00:46.269Z,6.71
2023-04-26T08:01:45.558Z,6.75
2023-04-26T08:02:45.997Z,6.76
2023-04-26T08:03:46.285Z,6.72
2023-04-26T08:04:46.489Z,6.76
2023-04-26T08:05:45.098Z,6.73
2023-04-26T08:06:44.969Z,6.69
2023-04-26T08:07:45.190Z,6.64
2023-04-26T08:08:45.398Z,6.69
2023-04-26T08:09:46.697Z,6.72
2023-04-26T08:10:44.980Z,6.72
2023-04-26T08:11:46.240Z,6.72
2023-04-26T08:12:45.484Z,6.73
2023-04-26T08:13:44.801Z,6.75
2023-04-26T08:14:45.135Z,6.75
2023-04-26T08:15:46.295Z,6.78
2023-04-26T08:16:44.682Z,6.83
2023-04-26T08:17:45.042Z,6.91
2023-04-26T08:18:46.957Z,7.04
2023-04-26T08:19:45.516Z,7.09
2023-04-26T08:20:44.847Z,7.05
2023-04-26T08:21:46.147Z,7.01
2023-04-26T08:22:45.414Z,7.07
2023-04-26T08:23:44.754Z,7.14
2023-04-26T08:24:45.105Z,7.18
2023-04-26T08:25:45.983Z,7.19
2023-04-26T08:26:44.739Z,7.27
2023-04-26T08:27:46.078Z,7.29
2023-04-26T08:28:45.246Z,7.30
2023-04-26T08:29:44.569Z,7.27
2023-04-26T08:30:46.913Z,7.30
2023-04-26T08:31:45.116Z,7.27
2023-04-26T08:32:45.477Z,7.24
2023-04-26T08:33:45.737Z,7.26
2023-04-26T08:34:46.072Z,7.27
2023-04-26T08:35:45.220Z,7.19
2023-04-26T08:36:45.682Z,7.21
2023-04-26T08:37:44.852Z,7.24
2023-04-26T08:38:45.030Z,7.29
2023-04-26T08:39:44.970Z,7.34
2023-04-26T08:40:46.657Z,7.39
2023-04-26T08:41:45.929Z,7.44
2023-04-26T08:42:45.157Z,7.48
2023-04-26T08:43:45.429Z,7.48
2023-04-26T08:44:45.714Z,7.47
2023-04-26T08:45:45.115Z,7.48
2023-04-26T08:46:45.333Z,7.50
2023-04-26T08:47:45.602Z,7.52
2023-04-26T08:48:45.843Z,7.52
2023-04-26T08:49:45.089Z,7.51
2023-04-26T08:50:45.412Z,7.48
2023-04-26T08:51:45.643Z,7.48
2023-04-26T08:52:44.929Z,7.51
2023-04-26T08:53:45.196Z,7.52
2023-04-26T08:54:44.590Z,7.55
2023-04-26T08:55:44.697Z,7.60
2023-04-26T08:56:45.080Z,7.63
2023-04-26T08:57:44.325Z,7.66
2023-04-26T08:58:45.575Z,7.70
2023-04-26T08:59:43.830Z,7.77
2023-04-26T09:00:45.367Z,7.79
2023-04-26T09:01:45.508Z,7.73
2023-04-26T09:02:45.741Z,7.77
2023-04-26T09:03:44.027Z,7.76
2023-04-26T09:04:44.348Z,7.77
2023-04-26T09:05:45.475Z,7.82
2023-04-26T09:06:43.698Z,7.86
2023-04-26T09:07:44.974Z,7.86
2023-04-26T09:08:44.264Z,7.85
2023-04-26T09:09:45.493Z,7.88
2023-04-26T09:10:43.787Z,7.89
2023-04-26T09:11:44.092Z,7.88
2023-04-26T09:12:45.243Z,7.92
2023-04-26T09:13:43.600Z,8.03
2023-04-26T09:14:43.897Z,8.14
2023-04-26T09:15:45.171Z,8.22
2023-04-26T09:16:45.449Z,8.17
2023-04-26T09:17:43.731Z,8.10
2023-04-26T09:18:44.055Z,8.12
2023-04-26T09:19:45.250Z,8.17
2023-04-26T09:20:43.527Z,8.18
2023-04-26T09:21:43.901Z,8.14
2023-04-26T09:22:45.050Z,8.18
2023-04-26T09:23:44.500Z,8.17
2023-04-26T09:24:43.621Z,8.17
2023-04-26T09:25:43.889Z,8.12
2023-04-26T09:26:44.273Z,8.07
2023-04-26T09:27:43.461Z,8.04
2023-04-26T09:28:43.747Z,7.99
2023-04-26T09:29:45.072Z,7.94
2023-04-26T09:30:45.251Z,7.92
2023-04-26T09:31:43.589Z,7.94
2023-04-26T09:32:44.021Z,7.96
2023-04-26T09:33:44.149Z,7.95
2023-04-26T09:34:43.415Z,7.95
2023-04-26T09:35:44.702Z,7.92
2023-04-26T09:36:43.981Z,7.94
2023-04-26T09:37:50.840Z,7.96
2023-04-26T09:38:44.569Z,7.96
2023-04-26T09:39:43.837Z,7.95
2023-04-26T09:40:45.086Z,7.99
2023-04-26T09:41:43.450Z,7.99
2023-04-26T09:42:43.715Z,8.07
2023-04-26T09:43:43.997Z,8.09
2023-04-26T09:44:43.257Z,8.07
2023-04-26T09:45:43.557Z,8.10
2023-04-26T09:46:43.876Z,8.13
2023-04-26T09:47:43.144Z,8.12
2023-04-26T09:48:45.220Z,8.17
2023-04-26T09:49:43.636Z,8.14
2023-04-26T09:50:43.947Z,8.13
2023-04-26T09:51:45.164Z,8.18
2023-04-26T09:52:43.462Z,8.20
2023-04-26T09:53:44.679Z,8.20
2023-04-26T09:54:45.071Z,8.14
2023-04-26T09:55:43.250Z,8.21
2023-04-26T09:56:43.547Z,8.24
2023-04-26T09:57:43.785Z,8.22
2023-04-26T09:58:43.016Z,8.29
2023-04-26T09:59:44.246Z,8.37
2023-04-26T10:00:43.573Z,8.47
2023-04-26T10:01:43.824Z,8.57
2023-04-26T10:02:43.160Z,8.67
2023-04-26T10:03:44.410Z,8.76
2023-04-26T10:04:43.640Z,8.86
2023-04-26T10:05:43.815Z,8.98
2023-04-26T10:06:43.197Z,9.01
2023-04-26T10:07:43.529Z,8.97
2023-04-26T10:08:43.718Z,8.96
2023-04-26T10:09:42.897Z,8.96
2023-04-26T10:10:44.140Z,9.03
2023-04-26T10:11:43.479Z,9.04
2023-04-26T10:12:43.748Z,9.13
2023-04-26T10:13:43.051Z,9.19
2023-04-26T10:14:44.241Z,9.27
2023-04-26T10:15:43.554Z,9.32
2023-04-26T10:16:42.855Z,9.35
2023-04-26T10:17:44.045Z,9.41
2023-04-26T10:18:44.412Z,9.44
2023-04-26T10:19:43.620Z,9.48
2023-04-26T10:20:42.850Z,9.49
2023-04-26T10:21:43.086Z,9.50
2023-04-26T10:22:44.292Z,9.41
2023-04-26T10:23:43.584Z,9.37
2023-04-26T10:24:42.795Z,9.38
2023-04-26T10:25:43.981Z,9.40
2023-04-26T10:26:44.247Z,9.48
2023-04-26T10:27:43.471Z,9.58
2023-04-26T10:28:43.758Z,9.62
2023-04-26T10:29:43.162Z,9.63
2023-04-26T10:30:44.291Z,9.70
2023-04-26T10:31:43.589Z,9.75
2023-04-26T10:32:42.880Z,9.68
2023-04-26T10:33:44.077Z,9.63
2023-04-26T10:34:44.348Z,9.59
2023-04-26T10:35:42.598Z,9.40
2023-04-26T10:36:43.833Z,9.22
2023-04-26T10:37:43.144Z,9.17
2023-04-26T10:38:43.338Z,9.19
2023-04-26T10:39:43.604Z,9.30
2023-04-26T10:40:44.133Z,9.48
2023-04-26T10:41:44.170Z,9.60
2023-04-26T10:42:42.469Z,9.75
2023-04-26T10:43:42.786Z,9.89
2023-04-26T10:44:43.063Z,9.86
2023-04-26T10:45:43.283Z,9.85
2023-04-26T10:46:43.737Z,9.89
2023-04-26T10:47:43.907Z,9.99
2023-04-26T10:48:43.144Z,10.14
2023-04-26T10:49:43.358Z,10.22
2023-04-26T10:50:43.637Z,10.22
2023-04-26T10:51:43.909Z,10.14
2023-04-26T10:52:44.188Z,10.16
2023-04-26T10:53:42.424Z,10.10
2023-04-26T10:54:43.689Z,10.13
2023-04-26T10:55:43.968Z,10.04
2023-04-26T10:56:43.331Z,10.02
2023-04-26T10:57:43.701Z,10.04
2023-04-26T10:58:43.733Z,10.02
2023-04-26T10:59:54.321Z,10.04
2023-04-26T11:00:43.273Z,9.95
2023-04-26T11:01:43.496Z,9.86
2023-04-26T11:02:43.832Z,9.73
2023-04-26T11:03:44.275Z,9.65
2023-04-26T11:04:43.235Z,9.55
2023-04-26T11:05:43.500Z,9.50
2023-04-26T11:06:43.740Z,9.44
2023-04-26T11:07:44.101Z,9.45
2023-04-26T11:08:42.317Z,9.52
2023-04-26T11:09:46.724Z,9.71
2023-04-26T11:10:42.912Z,9.81
2023-04-26T11:11:42.076Z,9.93
2023-04-26T11:12:42.409Z,10.06
2023-04-26T11:13:44.050Z,10.24
2023-04-26T11:14:43.868Z,10.36
2023-04-26T11:15:42.238Z,10.47
2023-04-26T11:16:43.411Z,10.65
2023-04-26T11:17:42.693Z,10.80
2023-04-26T11:18:42.994Z,10.93
2023-04-26T11:19:43.114Z,10.90
2023-04-26T11:20:42.406Z,10.87
2023-04-26T11:21:42.657Z,10.68
2023-04-26T11:22:43.884Z,10.58
2023-04-26T11:23:43.115Z,10.73
2023-04-26T11:24:42.468Z,10.88
2023-04-26T11:25:42.603Z,10.98
2023-04-26T11:26:41.841Z,11.03
2023-04-26T11:27:43.049Z,11.03
2023-04-26T11:28:42.447Z,11.11
2023-04-26T11:29:44.697Z,11.08
2023-04-26T11:30:42.833Z,10.94
2023-04-26T11:31:43.097Z,10.81
2023-04-26T11:32:43.342Z,10.73
2023-04-26T11:33:43.690Z,10.63
2023-04-26T11:34:42.852Z,10.60
2023-04-26T11:35:43.095Z,10.65
2023-04-26T11:36:42.378Z,10.80
2023-04-26T11:37:42.567Z,11.01
2023-04-26T11:38:42.837Z,11.26
2023-04-26T11:39:43.200Z,11.26
2023-04-26T11:40:42.420Z,11.26
2023-04-26T11:41:41.648Z,11.30
2023-04-26T11:42:41.892Z,11.28
2023-04-26T11:43:42.215Z,11.28
2023-04-26T11:44:44.624Z,11.36
2023-04-26T11:45:41.657Z,11.41
2023-04-26T11:46:41.985Z,11.42
2023-04-26T11:47:43.130Z,11.46
2023-04-26T11:48:43.319Z,11.53
2023-04-26T11:49:41.552Z,11.67
2023-04-26T11:50:41.852Z,11.82
2023-04-26T11:51:42.972Z,12.01
2023-04-26T11:52:43.215Z,12.16
2023-04-26T11:53:42.579Z,12.33
2023-04-26T11:54:42.678Z,12.55
2023-04-26T11:55:41.973Z,12.69
2023-04-26T11:56:42.287Z,12.73
2023-04-26T11:57:42.347Z,12.70
2023-04-26T11:58:42.567Z,12.70
2023-04-26T11:59:42.855Z,12.61
2023-04-26T12:00:43.084Z,12.66
2023-04-26T12:01:41.415Z,12.80
2023-04-26T12:02:41.848Z,12.79
2023-04-26T12:03:41.959Z,12.61
2023-04-26T12:04:43.295Z,12.46
2023-04-26T12:05:41.322Z,12.30
2023-04-26T12:06:42.537Z,12.15
2023-04-26T12:07:42.755Z,12.16
2023-04-26T12:08:42.993Z,12.16
2023-04-26T12:09:41.248Z,12.11
2023-04-26T12:10:42.472Z,11.97
2023-04-26T12:11:41.739Z,11.85
2023-04-26T12:12:43.032Z,11.72
2023-04-26T12:13:41.178Z,11.70
2023-04-26T12:14:42.371Z,11.81
2023-04-26T12:15:42.629Z,11.87
2023-04-26T12:16:42.841Z,12.04
2023-04-26T12:17:43.108Z,12.12
2023-04-26T12:18:42.243Z,12.01
2023-04-26T12:19:41.551Z,11.97
2023-04-26T12:20:42.788Z,11.94
2023-04-26T12:21:42.087Z,11.82
2023-04-26T12:22:41.241Z,11.64
2023-04-26T12:23:42.505Z,11.64
2023-04-26T12:24:41.745Z,11.74
2023-04-26T12:25:42.953Z,11.96
2023-04-26T12:26:42.206Z,12.15
2023-04-26T12:27:42.324Z,12.29
2023-04-26T12:28:41.672Z,12.49
2023-04-26T12:29:41.928Z,12.71
2023-04-26T12:30:41.114Z,12.74
2023-04-26T12:31:42.326Z,12.59
2023-04-26T12:32:42.545Z,12.36
2023-04-26T12:33:42.764Z,12.23
2023-04-26T12:34:41.016Z,12.18
2023-04-26T12:35:41.148Z,11.97
2023-04-26T12:36:41.398Z,11.82
2023-04-26T12:37:42.593Z,11.69
2023-04-26T12:38:40.865Z,11.70
2023-04-26T12:39:41.128Z,11.82
2023-04-26T12:40:41.592Z,11.82
2023-04-26T12:41:41.565Z,11.84
2023-04-26T12:42:40.763Z,11.77
2023-04-26T12:43:40.992Z,11.74
2023-04-26T12:44:41.210Z,11.77
2023-04-26T12:45:42.433Z,11.78
2023-04-26T12:46:42.819Z,11.69
2023-04-26T12:47:40.956Z,11.59
2023-04-26T12:48:41.113Z,11.57
2023-04-26T12:49:42.449Z,11.57
2023-04-26T12:50:42.530Z,11.70
2023-04-26T12:51:40.845Z,11.84
2023-04-26T12:52:41.027Z,12.00
2023-04-26T12:53:41.260Z,12.13
2023-04-26T12:54:41.541Z,12.26
2023-04-26T12:55:40.677Z,12.34
2023-04-26T12:56:40.921Z,12.40
2023-04-26T12:57:41.112Z,12.43
2023-04-26T12:58:41.340Z,12.34
2023-04-26T12:59:40.546Z,12.23
2023-04-26T13:00:43.228Z,12.26
2023-04-26T13:01:41.189Z,12.18
2023-04-26T13:02:41.376Z,12.16
2023-04-26T13:03:41.649Z,12.22
2023-04-26T13:04:41.568Z,12.30
2023-04-26T13:05:40.869Z,12.40
2023-04-26T13:06:41.145Z,12.43
2023-04-26T13:07:41.358Z,12.48
2023-04-26T13:08:40.522Z,12.51
2023-04-26T13:09:40.815Z,12.49
2023-04-26T13:10:41.011Z,12.54
2023-04-26T13:11:41.239Z,12.59
2023-04-26T13:12:40.473Z,12.61
2023-04-26T13:13:44.364Z,12.66